sensor_id;sensor_type;location;lat;lon;timestamp;pressure;altitude;pressure_sealevel;temperature;humidity
29371;BME280;16357;52.188;7.838;2023-11-21T00:01:03;100293.91;;;10.00;69.03
29371;BME280;16357;52.188;7.838;2023-11-21T00:03:31;100292.75;;;10.02;68.95
29371;BME280;16357;52.188;7.838;2023-11-21T00:05:58;100300.44;;;10.05;68.89
29371;BME280;16357;52.188;7.838;2023-11-21T00:08:24;100302.84;;;10.08;68.70
29371;BME280;16357;52.188;7.838;2023-11-21T00:10:51;100301.66;;;10.11;68.84
29371;BME280;16357;52.188;7.838;2023-11-21T00:13:17;100307.69;;;10.13;68.87
29371;BME280;16357;52.188;7.838;2023-11-21T00:15:44;100302.84;;;10.17;68.84
29371;BME280;16357;52.188;7.838;2023-11-21T00:18:10;100308.84;;;10.19;68.87
29371;BME280;16357;52.188;7.838;2023-11-21T00:20:37;100308.56;;;10.22;68.87
29371;BME280;16357;52.188;7.838;2023-11-21T00:23:04;100310.91;;;10.25;69.06
29371;BME280;16357;52.188;7.838;2023-11-21T00:25:30;100311.59;;;10.27;68.94
29371;BME280;16357;52.188;7.838;2023-11-21T00:27:58;100315.81;;;10.29;68.93
29371;BME280;16357;52.188;7.838;2023-11-21T00:30:24;100313.78;;;10.31;69.01
29371;BME280;16357;52.188;7.838;2023-11-21T00:32:51;100314.31;;;10.35;69.00
29371;BME280;16357;52.188;7.838;2023-11-21T00:35:17;100319.34;;;10.38;68.88
29371;BME280;16357;52.188;7.838;2023-11-21T00:37:44;100316.47;;;10.40;69.05
29371;BME280;16357;52.188;7.838;2023-11-21T00:40:11;100321.53;;;10.43;68.81
29371;BME280;16357;52.188;7.838;2023-11-21T00:42:38;100325.72;;;10.45;68.77
29371;BME280;16357;52.188;7.838;2023-11-21T00:45:06;100321.88;;;10.48;68.87
29371;BME280;16357;52.188;7.838;2023-11-21T00:47:33;100312.81;;;10.49;68.88
29371;BME280;16357;52.188;7.838;2023-11-21T00:50:00;100319.69;;;10.51;68.95
29371;BME280;16357;52.188;7.838;2023-11-21T00:52:27;100316.81;;;10.53;68.82
29371;BME280;16357;52.188;7.838;2023-11-21T00:54:53;100331.72;;;10.55;68.81
29371;BME280;16357;52.188;7.838;2023-11-21T00:57:20;100326.22;;;10.57;68.71
29371;BME280;16357;52.188;7.838;2023-11-21T00:59:46;100328.56;;;10.60;68.63
29371;BME280;16357;52.188;7.838;2023-11-21T01:02:13;100329.38;;;10.61;68.64
29371;BME280;16357;52.188;7.838;2023-11-21T01:04:39;100334.59;;;10.62;68.61
29371;BME280;16357;52.188;7.838;2023-11-21T01:07:06;100342.50;;;10.64;68.53
29371;BME280;16357;52.188;7.838;2023-11-21T01:09:32;100337.78;;;10.66;68.55
29371;BME280;16357;52.188;7.838;2023-11-21T01:11:59;100331.44;;;10.67;68.54
29371;BME280;16357;52.188;7.838;2023-11-21T01:14:27;100325.19;;;10.66;68.47
29371;BME280;16357;52.188;7.838;2023-11-21T01:16:54;100328.75;;;10.67;68.56
29371;BME280;16357;52.188;7.838;2023-11-21T01:19:20;100334.09;;;10.67;68.49
29371;BME280;16357;52.188;7.838;2023-11-21T01:21:47;100341.97;;;10.68;68.68
29371;BME280;16357;52.188;7.838;2023-11-21T01:24:13;100351.88;;;10.68;68.67
29371;BME280;16357;52.188;7.838;2023-11-21T01:26:40;100349.03;;;10.69;68.65
29371;BME280;16357;52.188;7.838;2023-11-21T01:29:06;100349.88;;;10.70;68.53
29371;BME280;16357;52.188;7.838;2023-11-21T01:31:33;100353.38;;;10.70;68.52
29371;BME280;16357;52.188;7.838;2023-11-21T01:34:00;100355.22;;;10.70;68.60
29371;BME280;16357;52.188;7.838;2023-11-21T01:36:31;100360.41;;;10.71;68.37
29371;BME280;16357;52.188;7.838;2023-11-21T01:39:00;100361.44;;;10.70;68.44
29371;BME280;16357;52.188;7.838;2023-11-21T01:41:27;100367.63;;;10.71;68.70
29371;BME280;16357;52.188;7.838;2023-11-21T01:43:55;100363.97;;;10.72;68.62
29371;BME280;16357;52.188;7.838;2023-11-21T01:46:22;100365.63;;;10.73;68.75
29371;BME280;16357;52.188;7.838;2023-11-21T01:48:51;100367.28;;;10.74;68.81
29371;BME280;16357;52.188;7.838;2023-11-21T01:51:19;100363.63;;;10.75;68.86
29371;BME280;16357;52.188;7.838;2023-11-21T01:53:46;100371.66;;;10.75;68.75
29371;BME280;16357;52.188;7.838;2023-11-21T01:56:13;100368.81;;;10.76;68.81
29371;BME280;16357;52.188;7.838;2023-11-21T01:58:40;100368.66;;;10.78;68.62
29371;BME280;16357;52.188;7.838;2023-11-21T02:01:08;100380.22;;;10.79;68.76
29371;BME280;16357;52.188;7.838;2023-11-21T02:03:36;100378.22;;;10.81;68.74
29371;BME280;16357;52.188;7.838;2023-11-21T02:06:02;100386.09;;;10.82;68.77
29371;BME280;16357;52.188;7.838;2023-11-21T02:08:29;100383.41;;;10.82;68.60
29371;BME280;16357;52.188;7.838;2023-11-21T02:10:55;100389.44;;;10.84;68.84
29371;BME280;16357;52.188;7.838;2023-11-21T02:13:24;100381.38;;;10.84;68.63
29371;BME280;16357;52.188;7.838;2023-11-21T02:15:50;100382.22;;;10.85;68.43
29371;BME280;16357;52.188;7.838;2023-11-21T02:18:18;100397.47;;;10.84;68.56
29371;BME280;16357;52.188;7.838;2023-11-21T02:20:45;100391.13;;;10.85;68.78
29371;BME280;16357;52.188;7.838;2023-11-21T02:23:12;100397.34;;;10.86;68.58
29371;BME280;16357;52.188;7.838;2023-11-21T02:25:39;100392.81;;;10.86;68.80
29371;BME280;16357;52.188;7.838;2023-11-21T02:28:05;100393.63;;;10.87;68.82
29371;BME280;16357;52.188;7.838;2023-11-21T02:30:33;100399.00;;;10.87;68.94
29371;BME280;16357;52.188;7.838;2023-11-21T02:33:01;100397.81;;;10.89;68.90
29371;BME280;16357;52.188;7.838;2023-11-21T02:35:28;100394.16;;;10.90;68.73
29371;BME280;16357;52.188;7.838;2023-11-21T02:37:57;100401.19;;;10.91;68.78
29371;BME280;16357;52.188;7.838;2023-11-21T02:40:24;100405.53;;;10.92;68.59
29371;BME280;16357;52.188;7.838;2023-11-21T02:42:53;100405.53;;;10.92;68.68
29371;BME280;16357;52.188;7.838;2023-11-21T02:45:20;100411.78;;;10.93;68.69
29371;BME280;16357;52.188;7.838;2023-11-21T02:47:48;100409.09;;;10.93;68.66
29371;BME280;16357;52.188;7.838;2023-11-21T02:50:20;100402.84;;;10.92;68.66
29371;BME280;16357;52.188;7.838;2023-11-21T02:52:46;100407.25;;;10.93;68.74
29371;BME280;16357;52.188;7.838;2023-11-21T02:55:13;100404.38;;;10.95;68.83
29371;BME280;16357;52.188;7.838;2023-11-21T02:57:40;100408.06;;;10.94;68.89
29371;BME280;16357;52.188;7.838;2023-11-21T03:00:07;100408.91;;;10.94;68.83
29371;BME280;16357;52.188;7.838;2023-11-21T03:02:34;100410.59;;;10.95;68.77
29371;BME280;16357;52.188;7.838;2023-11-21T03:05:06;100398.84;;;10.96;68.54
29371;BME280;16357;52.188;7.838;2023-11-21T03:07:33;100400.50;;;10.97;68.59
29371;BME280;16357;52.188;7.838;2023-11-21T03:09:59;100405.03;;;10.97;68.58
29371;BME280;16357;52.188;7.838;2023-11-21T03:12:26;100407.72;;;10.97;68.50
29371;BME280;16357;52.188;7.838;2023-11-21T03:14:53;100415.78;;;10.97;68.39
29371;BME280;16357;52.188;7.838;2023-11-21T03:17:20;100412.25;;;10.96;68.58
29371;BME280;16357;52.188;7.838;2023-11-21T03:19:47;100412.25;;;10.96;68.54
29371;BME280;16357;52.188;7.838;2023-11-21T03:22:14;100414.94;;;10.96;68.57
29371;BME280;16357;52.188;7.838;2023-11-21T03:24:40;100416.81;;;10.96;68.48
29371;BME280;16357;52.188;7.838;2023-11-21T03:27:07;100420.31;;;10.96;68.53
29371;BME280;16357;52.188;7.838;2023-11-21T03:29:34;100429.38;;;10.95;68.48
29371;BME280;16357;52.188;7.838;2023-11-21T03:32:00;100424.84;;;10.96;68.33
29371;BME280;16357;52.188;7.838;2023-11-21T03:34:28;100431.06;;;10.96;68.42
29371;BME280;16357;52.188;7.838;2023-11-21T03:36:54;100428.53;;;10.95;68.50
29371;BME280;16357;52.188;7.838;2023-11-21T03:39:21;100431.88;;;10.97;68.76
29371;BME280;16357;52.188;7.838;2023-11-21T03:41:48;100437.25;;;10.97;68.80
29371;BME280;16357;52.188;7.838;2023-11-21T03:44:15;100440.78;;;10.97;68.73
29371;BME280;16357;52.188;7.838;2023-11-21T03:46:41;100447.00;;;10.98;68.68
29371;BME280;16357;52.188;7.838;2023-11-21T03:49:08;100447.84;;;10.98;68.82
29371;BME280;16357;52.188;7.838;2023-11-21T03:51:34;100448.50;;;11.01;68.68
29371;BME280;16357;52.188;7.838;2023-11-21T03:54:01;100460.91;;;11.02;68.60
29371;BME280;16357;52.188;7.838;2023-11-21T03:56:28;100474.16;;;11.03;68.57
29371;BME280;16357;52.188;7.838;2023-11-21T03:58:54;100458.06;;;11.03;68.52
29371;BME280;16357;52.188;7.838;2023-11-21T04:01:24;100470.50;;;11.04;68.46
29371;BME280;16357;52.188;7.838;2023-11-21T04:03:51;100466.97;;;11.04;68.58
29371;BME280;16357;52.188;7.838;2023-11-21T04:06:18;100474.00;;;11.05;68.38
29371;BME280;16357;52.188;7.838;2023-11-21T04:08:45;100477.72;;;11.04;68.75
29371;BME280;16357;52.188;7.838;2023-11-21T04:11:12;100474.16;;;11.03;68.58
29371;BME280;16357;52.188;7.838;2023-11-21T04:13:39;100486.59;;;11.04;68.43
29371;BME280;16357;52.188;7.838;2023-11-21T04:16:07;100490.94;;;11.05;68.59
29371;BME280;16357;52.188;7.838;2023-11-21T04:18:36;100487.28;;;11.06;68.48
29371;BME280;16357;52.188;7.838;2023-11-21T04:21:04;100484.75;;;11.05;68.56
29371;BME280;16357;52.188;7.838;2023-11-21T04:23:31;100489.09;;;11.06;68.73
29371;BME280;16357;52.188;7.838;2023-11-21T04:25:58;100485.44;;;11.07;68.78
29371;BME280;16357;52.188;7.838;2023-11-21T04:28:25;100482.75;;;11.07;68.87
29371;BME280;16357;52.188;7.838;2023-11-21T04:30:51;100483.72;;;11.06;68.83
29371;BME280;16357;52.188;7.838;2023-11-21T04:33:18;100477.38;;;11.07;68.89
29371;BME280;16357;52.188;7.838;2023-11-21T04:35:45;100484.41;;;11.08;68.85
29371;BME280;16357;52.188;7.838;2023-11-21T04:38:12;100485.09;;;11.10;68.97
29371;BME280;16357;52.188;7.838;2023-11-21T04:40:39;100495.69;;;11.11;68.74
29371;BME280;16357;52.188;7.838;2023-11-21T04:43:05;100490.31;;;11.11;68.82
29371;BME280;16357;52.188;7.838;2023-11-21T04:45:32;100487.63;;;11.11;68.84
29371;BME280;16357;52.188;7.838;2023-11-21T04:47:58;100483.09;;;11.12;68.76
29371;BME280;16357;52.188;7.838;2023-11-21T04:50:25;100492.81;;;11.13;69.09
29371;BME280;16357;52.188;7.838;2023-11-21T04:52:53;100495.50;;;11.13;68.75
29371;BME280;16357;52.188;7.838;2023-11-21T04:55:20;100501.03;;;11.11;68.87
29371;BME280;16357;52.188;7.838;2023-11-21T04:57:46;100499.19;;;11.12;68.88
29371;BME280;16357;52.188;7.838;2023-11-21T05:00:13;100501.88;;;11.12;68.85
29371;BME280;16357;52.188;7.838;2023-11-21T05:02:40;100501.03;;;11.11;68.82
29371;BME280;16357;52.188;7.838;2023-11-21T05:05:08;100509.94;;;11.12;68.93
29371;BME280;16357;52.188;7.838;2023-11-21T05:07:36;100513.59;;;11.11;69.05
29371;BME280;16357;52.188;7.838;2023-11-21T05:10:07;100510.91;;;11.11;69.04
29371;BME280;16357;52.188;7.838;2023-11-21T05:12:37;100513.59;;;11.11;69.00
29371;BME280;16357;52.188;7.838;2023-11-21T05:15:04;100509.25;;;11.10;69.12
29371;BME280;16357;52.188;7.838;2023-11-21T05:17:33;100511.78;;;11.11;69.37
29371;BME280;16357;52.188;7.838;2023-11-21T05:20:01;100510.91;;;11.11;69.25
29371;BME280;16357;52.188;7.838;2023-11-21T05:22:35;100519.84;;;11.11;69.38
29371;BME280;16357;52.188;7.838;2023-11-21T05:25:02;100510.75;;;11.12;69.37
29371;BME280;16357;52.188;7.838;2023-11-21T05:27:30;100516.13;;;11.12;69.39
29371;BME280;16357;52.188;7.838;2023-11-21T05:30:02;100518.66;;;11.14;69.33
29371;BME280;16357;52.188;7.838;2023-11-21T05:32:32;100530.38;;;11.13;69.39
29371;BME280;16357;52.188;7.838;2023-11-21T05:34:59;100531.06;;;11.15;69.49
29371;BME280;16357;52.188;7.838;2023-11-21T05:37:26;100533.75;;;11.15;69.42
29371;BME280;16357;52.188;7.838;2023-11-21T05:39:53;100545.19;;;11.17;69.44
29371;BME280;16357;52.188;7.838;2023-11-21T05:42:23;100543.47;;;11.16;69.19
29371;BME280;16357;52.188;7.838;2023-11-21T05:44:50;100546.00;;;11.17;69.31
29371;BME280;16357;52.188;7.838;2023-11-21T05:47:16;100545.19;;;11.17;69.34
29371;BME280;16357;52.188;7.838;2023-11-21T05:49:44;100549.53;;;11.18;69.14
29371;BME280;16357;52.188;7.838;2023-11-21T05:52:12;100557.59;;;11.18;69.18
29371;BME280;16357;52.188;7.838;2023-11-21T05:54:38;100555.09;;;11.16;69.26
29371;BME280;16357;52.188;7.838;2023-11-21T05:57:05;100565.81;;;11.16;69.18
29371;BME280;16357;52.188;7.838;2023-11-21T05:59:31;100567.63;;;11.16;69.21
29371;BME280;16357;52.188;7.838;2023-11-21T06:01:57;100573.00;;;11.16;69.18
29371;BME280;16357;52.188;7.838;2023-11-21T06:04:25;100563.28;;;11.15;69.41
29371;BME280;16357;52.188;7.838;2023-11-21T06:06:52;100570.66;;;11.13;69.25
29371;BME280;16357;52.188;7.838;2023-11-21T06:09:19;100573.34;;;11.13;69.39
29371;BME280;16357;52.188;7.838;2023-11-21T06:11:45;100578.91;;;11.11;69.49
29371;BME280;16357;52.188;7.838;2023-11-21T06:14:12;100581.59;;;11.11;69.51
29371;BME280;16357;52.188;7.838;2023-11-21T06:16:38;100587.94;;;11.10;69.69
29371;BME280;16357;52.188;7.838;2023-11-21T06:19:06;100593.31;;;11.10;69.41
29371;BME280;16357;52.188;7.838;2023-11-21T06:21:33;100598.69;;;11.10;69.50
29371;BME280;16357;52.188;7.838;2023-11-21T06:24:00;100601.34;;;11.10;69.46
29371;BME280;16357;52.188;7.838;2023-11-21T06:26:27;100604.22;;;11.09;69.52
29371;BME280;16357;52.188;7.838;2023-11-21T06:28:54;100610.59;;;11.08;69.31
29371;BME280;16357;52.188;7.838;2023-11-21T06:31:21;100618.81;;;11.06;69.35
29371;BME280;16357;52.188;7.838;2023-11-21T06:33:48;100619.81;;;11.05;69.48
29371;BME280;16357;52.188;7.838;2023-11-21T06:36:14;100628.88;;;11.04;69.48
29371;BME280;16357;52.188;7.838;2023-11-21T06:38:41;100626.50;;;11.01;69.67
29371;BME280;16357;52.188;7.838;2023-11-21T06:41:07;100644.47;;;11.01;69.87
29371;BME280;16357;52.188;7.838;2023-11-21T06:43:34;100633.03;;;10.98;69.68
29371;BME280;16357;52.188;7.838;2023-11-21T06:46:01;100633.03;;;10.98;69.84
29371;BME280;16357;52.188;7.838;2023-11-21T06:48:27;100639.41;;;10.97;69.81
29371;BME280;16357;52.188;7.838;2023-11-21T06:50:54;100647.44;;;10.97;69.90
29371;BME280;16357;52.188;7.838;2023-11-21T06:53:20;100651.97;;;10.97;69.99
29371;BME280;16357;52.188;7.838;2023-11-21T06:55:47;100654.84;;;10.95;69.92
29371;BME280;16357;52.188;7.838;2023-11-21T06:58:13;100661.88;;;10.96;70.21
29371;BME280;16357;52.188;7.838;2023-11-21T07:00:41;100662.91;;;10.95;70.11
29371;BME280;16357;52.188;7.838;2023-11-21T07:03:12;100663.72;;;10.96;69.93
29371;BME280;16357;52.188;7.838;2023-11-21T07:05:39;100674.63;;;10.94;70.09
29371;BME280;16357;52.188;7.838;2023-11-21T07:08:05;100676.47;;;10.94;69.82
29371;BME280;16357;52.188;7.838;2023-11-21T07:10:33;100682.84;;;10.93;69.93
29371;BME280;16357;52.188;7.838;2023-11-21T07:13:01;100679.47;;;10.91;70.10
29371;BME280;16357;52.188;7.838;2023-11-21T07:15:28;100685.00;;;10.89;70.04
29371;BME280;16357;52.188;7.838;2023-11-21T07:17:54;100686.97;;;10.87;70.15
29371;BME280;16357;52.188;7.838;2023-11-21T07:20:21;100692.53;;;10.86;69.93
29371;BME280;16357;52.188;7.838;2023-11-21T07:22:47;100700.72;;;10.84;70.10
29371;BME280;16357;52.188;7.838;2023-11-21T07:25:14;100696.38;;;10.83;70.36
29371;BME280;16357;52.188;7.838;2023-11-21T07:27:43;100699.06;;;10.83;70.32
29371;BME280;16357;52.188;7.838;2023-11-21T07:30:11;100695.53;;;10.83;70.65
29371;BME280;16357;52.188;7.838;2023-11-21T07:32:38;100706.94;;;10.85;70.79
29371;BME280;16357;52.188;7.838;2023-11-21T07:35:07;100702.44;;;10.85;70.82
29371;BME280;16357;52.188;7.838;2023-11-21T07:37:34;100710.16;;;10.88;71.00
29371;BME280;16357;52.188;7.838;2023-11-21T07:40:01;100714.38;;;10.91;71.03
29371;BME280;16357;52.188;7.838;2023-11-21T07:42:27;100710.53;;;10.93;70.84
29371;BME280;16357;52.188;7.838;2023-11-21T07:44:53;100714.72;;;10.96;70.88
29371;BME280;16357;52.188;7.838;2023-11-21T07:47:20;100718.75;;;11.00;70.62
29371;BME280;16357;52.188;7.838;2023-11-21T07:49:47;100714.91;;;11.03;70.54
29371;BME280;16357;52.188;7.838;2023-11-21T07:52:13;100719.97;;;11.06;70.51
29371;BME280;16357;52.188;7.838;2023-11-21T07:54:42;100717.97;;;11.08;70.66
29371;BME280;16357;52.188;7.838;2023-11-21T07:57:09;100729.41;;;11.10;70.48
29371;BME280;16357;52.188;7.838;2023-11-21T07:59:40;100734.44;;;11.13;70.65
29371;BME280;16357;52.188;7.838;2023-11-21T08:02:07;100738.50;;;11.17;70.48
29371;BME280;16357;52.188;7.838;2023-11-21T08:04:33;100746.38;;;11.18;70.41
29371;BME280;16357;52.188;7.838;2023-11-21T08:07:01;100744.38;;;11.20;70.42
29371;BME280;16357;52.188;7.838;2023-11-21T08:09:30;100743.22;;;11.23;70.26
29371;BME280;16357;52.188;7.838;2023-11-21T08:11:56;100741.22;;;11.25;70.29
29371;BME280;16357;52.188;7.838;2023-11-21T08:14:23;100752.66;;;11.27;70.51
29371;BME280;16357;52.188;7.838;2023-11-21T08:16:51;100759.53;;;11.30;70.51
29371;BME280;16357;52.188;7.838;2023-11-21T08:19:18;100763.56;;;11.34;70.52
29371;BME280;16357;52.188;7.838;2023-11-21T08:21:45;100763.25;;;11.37;70.35
29371;BME280;16357;52.188;7.838;2023-11-21T08:24:12;100770.84;;;11.41;70.25
29371;BME280;16357;52.188;7.838;2023-11-21T08:26:38;100774.03;;;11.45;70.27
29371;BME280;16357;52.188;7.838;2023-11-21T08:29:05;100784.28;;;11.50;70.12
29371;BME280;16357;52.188;7.838;2023-11-21T08:31:33;100784.97;;;11.52;70.04
29371;BME280;16357;52.188;7.838;2023-11-21T08:34:00;100791.72;;;11.56;69.94
29371;BME280;16357;52.188;7.838;2023-11-21T08:36:29;100797.09;;;11.56;69.89
29371;BME280;16357;52.188;7.838;2023-11-21T08:38:57;100798.44;;;11.60;69.94
29371;BME280;16357;52.188;7.838;2023-11-21T08:41:24;100804.66;;;11.60;69.60
29371;BME280;16357;52.188;7.838;2023-11-21T08:43:51;100804.50;;;11.62;69.33
29371;BME280;16357;52.188;7.838;2023-11-21T08:46:18;100805.50;;;11.61;69.39
29371;BME280;16357;52.188;7.838;2023-11-21T08:48:46;100807.53;;;11.59;69.34
29371;BME280;16357;52.188;7.838;2023-11-21T08:51:12;100810.34;;;11.57;69.37
29371;BME280;16357;52.188;7.838;2023-11-21T08:53:40;100814.22;;;11.55;69.34
29371;BME280;16357;52.188;7.838;2023-11-21T08:56:07;100810.84;;;11.53;69.43
29371;BME280;16357;52.188;7.838;2023-11-21T08:58:35;100813.84;;;11.50;69.50
29371;BME280;16357;52.188;7.838;2023-11-21T09:01:04;100820.38;;;11.47;69.70
29371;BME280;16357;52.188;7.838;2023-11-21T09:03:31;100826.91;;;11.45;69.82
29371;BME280;16357;52.188;7.838;2023-11-21T09:06:00;100829.78;;;11.43;69.97
29371;BME280;16357;52.188;7.838;2023-11-21T09:08:27;100829.94;;;11.41;70.13
29371;BME280;16357;52.188;7.838;2023-11-21T09:10:55;100832.94;;;11.38;70.12
29371;BME280;16357;52.188;7.838;2023-11-21T09:13:22;100842.00;;;11.37;70.14
29371;BME280;16357;52.188;7.838;2023-11-21T09:15:51;100847.84;;;11.33;70.25
29371;BME280;16357;52.188;7.838;2023-11-21T09:18:18;100856.22;;;11.30;70.51
29371;BME280;16357;52.188;7.838;2023-11-21T09:20:44;100856.53;;;11.27;70.73
29371;BME280;16357;52.188;7.838;2023-11-21T09:23:10;100856.69;;;11.25;70.98
29371;BME280;16357;52.188;7.838;2023-11-21T09:25:37;100869.44;;;11.23;71.00
29371;BME280;16357;52.188;7.838;2023-11-21T09:28:05;100857.16;;;11.20;70.99
29371;BME280;16357;52.188;7.838;2023-11-21T09:30:34;100859.84;;;11.20;71.19
29371;BME280;16357;52.188;7.838;2023-11-21T09:33:02;100852.94;;;11.18;71.26
29371;BME280;16357;52.188;7.838;2023-11-21T09:35:28;100859.47;;;11.15;71.28
29371;BME280;16357;52.188;7.838;2023-11-21T09:37:55;100858.78;;;11.13;71.16
29371;BME280;16357;52.188;7.838;2023-11-21T09:40:22;100866.00;;;11.13;71.43
29371;BME280;16357;52.188;7.838;2023-11-21T09:42:55;100865.16;;;11.12;71.64
29371;BME280;16357;52.188;7.838;2023-11-21T09:45:27;100874.22;;;11.11;71.84
29371;BME280;16357;52.188;7.838;2023-11-21T09:47:55;100875.06;;;11.12;72.25
29371;BME280;16357;52.188;7.838;2023-11-21T09:50:23;100880.25;;;11.13;72.16
29371;BME280;16357;52.188;7.838;2023-11-21T09:53:13;100869.91;;;11.18;72.08
29371;BME280;16357;52.188;7.838;2023-11-21T09:55:45;100881.50;;;11.19;71.68
29371;BME280;16357;52.188;7.838;2023-11-21T09:58:14;100875.13;;;11.20;71.78
29371;BME280;16357;52.188;7.838;2023-11-21T10:00:45;100896.44;;;11.21;71.88
29371;BME280;16357;52.188;7.838;2023-11-21T10:03:12;100892.75;;;11.23;72.04
29371;BME280;16357;52.188;7.838;2023-11-21T10:05:42;100905.19;;;11.24;72.06
29371;BME280;16357;52.188;7.838;2023-11-21T10:08:09;100907.72;;;11.25;71.75
29371;BME280;16357;52.188;7.838;2023-11-21T10:10:37;100911.09;;;11.27;71.91
29371;BME280;16357;52.188;7.838;2023-11-21T10:13:06;100909.94;;;11.30;71.76
29371;BME280;16357;52.188;7.838;2023-11-21T10:15:34;100910.78;;;11.30;71.70
29371;BME280;16357;52.188;7.838;2023-11-21T10:18:05;100907.09;;;11.31;71.67
29371;BME280;16357;52.188;7.838;2023-11-21T10:20:33;100908.78;;;11.32;71.72
29371;BME280;16357;52.188;7.838;2023-11-21T10:23:00;100906.94;;;11.33;71.49
29371;BME280;16357;52.188;7.838;2023-11-21T10:25:32;100915.84;;;11.33;71.27
29371;BME280;16357;52.188;7.838;2023-11-21T10:27:59;100921.22;;;11.33;71.33
29371;BME280;16357;52.188;7.838;2023-11-21T10:30:38;100928.25;;;11.34;71.33
29371;BME280;16357;52.188;7.838;2023-11-21T10:33:05;100933.63;;;11.34;71.32
29371;BME280;16357;52.188;7.838;2023-11-21T10:38:08;100931.94;;;11.33;70.75
29371;BME280;16357;52.188;7.838;2023-11-21T10:40:40;100940.00;;;11.33;70.68
29371;BME280;16357;52.188;7.838;2023-11-21T10:43:09;100942.69;;;11.33;70.61
29371;BME280;16357;52.188;7.838;2023-11-21T10:45:39;100954.44;;;11.32;70.39
29371;BME280;16357;52.188;7.838;2023-11-21T10:48:07;100958.13;;;11.31;70.18
29371;BME280;16357;52.188;7.838;2023-11-21T10:50:47;100951.06;;;11.30;70.21
29371;BME280;16357;52.188;7.838;2023-11-21T10:53:14;100961.94;;;11.29;70.05
29371;BME280;16357;52.188;7.838;2023-11-21T10:55:42;100956.91;;;11.26;70.05
29371;BME280;16357;52.188;7.838;2023-11-21T10:58:13;100966.63;;;11.27;70.37
29371;BME280;16357;52.188;7.838;2023-11-21T11:00:41;100970.84;;;11.29;70.60
29371;BME280;16357;52.188;7.838;2023-11-21T11:03:07;100958.81;;;11.33;70.98
29371;BME280;16357;52.188;7.838;2023-11-21T11:05:43;100974.28;;;11.39;70.66
29371;BME280;16357;52.188;7.838;2023-11-21T11:08:18;100972.16;;;11.43;70.11
29371;BME280;16357;52.188;7.838;2023-11-21T11:10:45;100964.94;;;11.43;69.58
29371;BME280;16357;52.188;7.838;2023-11-21T11:13:14;100965.63;;;11.46;69.56
29371;BME280;16357;52.188;7.838;2023-11-21T11:15:42;100964.75;;;11.45;69.29
29371;BME280;16357;52.188;7.838;2023-11-21T11:18:09;100971.16;;;11.44;69.01
29371;BME280;16357;52.188;7.838;2023-11-21T11:20:37;100977.66;;;11.41;68.84
29371;BME280;16357;52.188;7.838;2023-11-21T11:23:40;100980.81;;;11.37;69.01
29371;BME280;16357;52.188;7.838;2023-11-21T11:26:31;100970.38;;;11.34;68.83
29371;BME280;16357;52.188;7.838;2023-11-21T11:30:10;100972.69;;;11.29;68.66
29371;BME280;16357;52.188;7.838;2023-11-21T11:32:28;100988.28;;;11.25;68.93
29371;BME280;16357;52.188;7.838;2023-11-21T11:35:26;100995.97;;;11.20;68.89
29371;BME280;16357;52.188;7.838;2023-11-21T11:38:06;100994.56;;;11.16;68.74
29371;BME280;16357;52.188;7.838;2023-11-21T11:40:47;101001.25;;;11.12;68.80
29371;BME280;16357;52.188;7.838;2023-11-21T11:43:25;101007.91;;;11.08;68.75
29371;BME280;16357;52.188;7.838;2023-11-21T11:45:51;101000.50;;;11.02;68.41
29371;BME280;16357;52.188;7.838;2023-11-21T11:48:26;101005.47;;;10.96;68.61
29371;BME280;16357;52.188;7.838;2023-11-21T11:51:02;101005.09;;;10.91;68.69
29371;BME280;16357;52.188;7.838;2023-11-21T11:53:37;101017.09;;;10.87;68.93
29371;BME280;16357;52.188;7.838;2023-11-21T11:56:26;101019.13;;;10.85;68.95
29371;BME280;16357;52.188;7.838;2023-11-21T11:58:58;101017.41;;;10.84;69.17
29371;BME280;16357;52.188;7.838;2023-11-21T12:01:26;101016.44;;;10.85;68.91
29371;BME280;16357;52.188;7.838;2023-11-21T12:06:43;101014.81;;;10.92;69.16
29371;BME280;16357;52.188;7.838;2023-11-21T12:09:18;101016.91;;;10.98;69.13
29371;BME280;16357;52.188;7.838;2023-11-21T12:11:46;101017.13;;;11.05;69.11
29371;BME280;16357;52.188;7.838;2023-11-21T12:14:13;101023.56;;;11.12;68.95
29371;BME280;16357;52.188;7.838;2023-11-21T12:16:41;101025.63;;;11.18;68.50
29371;BME280;16357;52.188;7.838;2023-11-21T12:19:12;101036.63;;;11.25;68.44
29371;BME280;16357;52.188;7.838;2023-11-21T12:21:39;101026.41;;;11.29;67.96
29371;BME280;16357;52.188;7.838;2023-11-21T12:24:08;101039.53;;;11.32;67.62
29371;BME280;16357;52.188;7.838;2023-11-21T12:26:35;101046.59;;;11.33;67.22
29371;BME280;16357;52.188;7.838;2023-11-21T12:29:05;101046.44;;;11.34;67.28
29371;BME280;16357;52.188;7.838;2023-11-21T12:31:34;101045.78;;;11.32;66.74
29371;BME280;16357;52.188;7.838;2023-11-21T12:34:01;101050.44;;;11.30;66.40
29371;BME280;16357;52.188;7.838;2023-11-21T12:36:28;101053.59;;;11.26;65.98
29371;BME280;16357;52.188;7.838;2023-11-21T12:38:56;101058.44;;;11.22;65.96
29371;BME280;16357;52.188;7.838;2023-11-21T12:41:23;101076.13;;;11.15;66.00
29371;BME280;16357;52.188;7.838;2023-11-21T12:43:49;101074.72;;;11.11;65.86
29371;BME280;16357;52.188;7.838;2023-11-21T12:46:16;101077.03;;;11.06;66.21
29371;BME280;16357;52.188;7.838;2023-11-21T12:48:44;101073.81;;;11.02;66.37
29371;BME280;16357;52.188;7.838;2023-11-21T12:51:12;101075.13;;;10.98;66.46
29371;BME280;16357;52.188;7.838;2023-11-21T12:53:40;101082.47;;;10.96;66.03
29371;BME280;16357;52.188;7.838;2023-11-21T12:56:11;101092.38;;;10.95;66.50
29371;BME280;16357;52.188;7.838;2023-11-21T12:58:39;101096.03;;;10.94;66.17
29371;BME280;16357;52.188;7.838;2023-11-21T13:01:06;101112.31;;;10.93;65.88